createdAt,value
2018-08-03T00:02:00.913Z,60.98
2018-08-03T00:04:33.392Z,61.20
2018-08-03T00:07:06.564Z,61.24
2018-08-03T00:09:39.984Z,60.97
2018-08-03T00:12:13.580Z,60.63
2018-08-03T00:14:49.355Z,60.39
2018-08-03T00:17:23.723Z,60.29
2018-08-03T00:19:56.848Z,60.33
2018-08-03T00:22:35.243Z,60.34
2018-08-03T00:25:15.467Z,60.55
2018-08-03T00:27:48.145Z,60.78
2018-08-03T00:30:20.849Z,61.11
2018-08-03T00:32:58.760Z,61.36
2018-08-03T00:35:36.528Z,61.44
2018-08-03T00:38:15.007Z,61.59
2018-08-03T00:40:52.929Z,61.69
2018-08-03T00:43:25.348Z,62.14
2018-08-03T00:46:02.992Z,62.21
2018-08-03T00:48:40.501Z,62.24
2018-08-03T00:51:17.980Z,61.78
2018-08-03T00:53:50.747Z,61.44
2018-08-03T00:56:23.126Z,61.27
2018-08-03T00:58:55.693Z,61.19
2018-08-03T01:01:29.784Z,61.35
2018-08-03T01:04:02.641Z,61.67
2018-08-03T01:06:36.570Z,62.06
2018-08-03T01:09:14.417Z,62.60
2018-08-03T01:11:47.822Z,63.02
2018-08-03T01:14:20.443Z,63.33
2018-08-03T01:16:54.099Z,63.38
2018-08-03T01:19:27.043Z,63.54
2018-08-03T01:22:06.499Z,63.85
2018-08-03T01:24:44.213Z,64.26
2018-08-03T01:27:17.756Z,64.17
2018-08-03T01:29:55.744Z,64.15
2018-08-03T01:32:29.715Z,63.24
2018-08-03T01:35:02.224Z,62.79
2018-08-03T01:37:40.317Z,62.31
2018-08-03T01:40:13.260Z,62.20
2018-08-03T01:42:45.856Z,62.25
2018-08-03T01:45:23.286Z,62.20
2018-08-03T01:47:57.065Z,62.44
2018-08-03T01:50:29.717Z,62.75
2018-08-03T01:53:02.330Z,63.09
2018-08-03T01:55:36.002Z,63.35
2018-08-03T01:58:08.681Z,63.48
2018-08-03T02:00:41.226Z,63.83
2018-08-03T02:03:17.595Z,64.24
2018-08-03T02:05:50.364Z,65.54
2018-08-03T02:08:23.088Z,65.73
2018-08-03T02:10:57.139Z,66.58
2018-08-03T02:13:34.661Z,67.05
2018-08-03T02:16:12.256Z,66.88
2018-08-03T02:18:45.077Z,66.72
2018-08-03T02:21:17.616Z,66.40
2018-08-03T02:23:51.068Z,66.26
2018-08-03T02:26:27.527Z,66.40
2018-08-03T02:29:00.725Z,66.67
2018-08-03T02:31:34.823Z,66.89
2018-08-03T02:34:12.887Z,66.43
2018-08-03T02:36:47.504Z,66.27
2018-08-03T02:39:20.769Z,66.47
2018-08-03T02:41:58.807Z,66.73
2018-08-03T02:44:36.774Z,67.07
2018-08-03T02:47:14.563Z,67.62
2018-08-03T02:49:52.000Z,68.07
2018-08-03T02:52:25.104Z,67.40
2018-08-03T02:55:03.571Z,67.27
2018-08-03T02:57:36.086Z,67.31
2018-08-03T03:00:08.102Z,67.11
2018-08-03T03:02:41.963Z,67.15
2018-08-03T03:05:15.679Z,67.49
2018-08-03T03:07:53.806Z,67.55
2018-08-03T03:10:26.365Z,66.82
2018-08-03T03:12:58.960Z,66.32
2018-08-03T03:15:37.399Z,66.34
2018-08-03T03:18:15.558Z,66.52
2018-08-03T03:20:53.569Z,66.96
2018-08-03T03:23:32.244Z,67.58
2018-08-03T03:26:05.273Z,67.76
2018-08-03T03:28:37.740Z,67.96
2018-08-03T03:31:16.538Z,68.30
2018-08-03T03:33:54.705Z,68.55
2018-08-03T03:36:32.301Z,68.94
2018-08-03T03:39:11.524Z,68.96
2018-08-03T03:41:44.003Z,69.14
2018-08-03T03:44:16.563Z,69.50
2018-08-03T03:46:49.613Z,69.66
2018-08-03T03:49:27.323Z,69.86
2018-08-03T03:52:05.488Z,69.61
2018-08-03T03:54:44.932Z,69.70
2018-08-03T03:57:22.184Z,69.82
2018-08-03T04:00:00.393Z,70.25
2018-08-03T04:02:38.306Z,70.19
2018-08-03T04:05:17.511Z,69.96
2018-08-03T04:07:50.084Z,70.00
2018-08-03T04:10:23.629Z,70.32
2018-08-03T04:12:56.306Z,70.35
2018-08-03T04:15:33.677Z,70.46
2018-08-03T04:18:25.885Z,70.38
2018-08-03T04:20:58.626Z,70.57
2018-08-03T04:23:36.891Z,70.77
2018-08-03T04:26:15.072Z,70.78
2018-08-03T04:28:47.590Z,70.83
2018-08-03T04:31:22.015Z,70.80
2018-08-03T04:33:54.392Z,70.73
2018-08-03T04:36:27.796Z,70.77
2018-08-03T04:39:07.801Z,70.70
2018-08-03T04:41:45.898Z,70.78
2018-08-03T04:44:24.169Z,70.80
2018-08-03T04:46:56.817Z,70.75
2018-08-03T04:49:29.841Z,70.68
2018-08-03T04:52:02.687Z,70.57
2018-08-03T04:54:35.053Z,70.56
2018-08-03T04:57:08.645Z,70.11
2018-08-03T04:59:41.534Z,69.46
2018-08-03T05:02:22.126Z,68.86
2018-08-03T05:04:54.707Z,68.55
2018-08-03T05:07:27.645Z,68.31
2018-08-03T05:10:00.789Z,67.87
2018-08-03T05:12:34.280Z,67.73
2018-08-03T05:15:08.724Z,67.03
2018-08-03T05:17:41.178Z,66.35
2018-08-03T05:20:19.177Z,66.32
2018-08-03T05:22:52.352Z,66.23
2018-08-03T05:25:25.032Z,66.00
2018-08-03T05:28:03.812Z,65.55
2018-08-03T05:30:36.580Z,65.37
2018-08-03T05:33:09.513Z,64.89
2018-08-03T05:35:42.178Z,64.67
2018-08-03T05:38:18.041Z,64.43
2018-08-03T05:40:51.212Z,64.16
2018-08-03T05:43:23.736Z,64.28
2018-08-03T05:45:57.873Z,64.35
2018-08-03T05:48:37.082Z,64.24
2018-08-03T05:51:15.465Z,64.04
2018-08-03T05:53:53.348Z,63.86
2018-08-03T05:56:26.004Z,63.61
2018-08-03T05:58:58.460Z,63.20
2018-08-03T06:01:36.585Z,63.05
2018-08-03T06:04:09.649Z,62.59
2018-08-03T06:06:42.346Z,62.44
2018-08-03T06:09:20.142Z,61.91
2018-08-03T06:11:57.356Z,62.01
2018-08-03T06:14:34.718Z,61.99
2018-08-03T06:17:13.882Z,61.76
2018-08-03T06:19:54.141Z,61.01
2018-08-03T06:22:26.765Z,61.04
2018-08-03T06:25:05.301Z,60.95
2018-08-03T06:27:44.592Z,60.79
2018-08-03T06:30:24.900Z,60.25
2018-08-03T06:32:57.796Z,59.46
2018-08-03T06:35:30.446Z,59.08
2018-08-03T06:38:03.104Z,58.80
2018-08-03T06:40:38.301Z,58.22
2018-08-03T06:43:11.500Z,57.40
2018-08-03T06:45:44.840Z,57.00
2018-08-03T06:48:18.346Z,57.05
2018-08-03T06:50:56.136Z,56.61
2018-08-03T06:53:32.187Z,56.17
2018-08-03T06:56:05.130Z,55.84
2018-08-03T06:58:42.631Z,55.44
2018-08-03T07:01:20.237Z,54.96
2018-08-03T07:04:00.600Z,54.70
2018-08-03T07:06:39.537Z,53.85
2018-08-03T07:09:17.900Z,53.83
2018-08-03T07:11:56.814Z,53.08
2018-08-03T07:14:35.630Z,53.02
2018-08-03T07:17:08.892Z,52.91
2018-08-03T07:19:43.598Z,52.17
2018-08-03T07:22:22.517Z,52.15
2018-08-03T07:24:59.933Z,52.08
2018-08-03T07:27:34.622Z,51.87
2018-08-03T07:30:10.418Z,51.33
2018-08-03T07:32:46.428Z,50.50
2018-08-03T07:35:25.784Z,49.98
2018-08-03T07:37:59.693Z,49.02
2018-08-03T07:40:34.223Z,48.07
2018-08-03T07:43:13.200Z,45.86
2018-08-03T07:45:46.237Z,43.72
2018-08-03T07:48:19.589Z,42.76
2018-08-03T07:50:54.296Z,41.13
2018-08-03T07:53:27.612Z,40.85
2018-08-03T07:56:03.985Z,39.98
2018-08-03T07:58:36.893Z,38.99
2018-08-03T08:01:15.979Z,38.08
2018-08-03T08:03:50.321Z,38.32
2018-08-03T08:06:30.194Z,37.52
2018-08-03T08:09:12.689Z,37.60
2018-08-03T08:11:46.081Z,37.60
2018-08-03T08:14:24.634Z,37.13
2018-08-03T08:17:01.708Z,37.03
2018-08-03T08:19:34.129Z,36.98
2018-08-03T08:22:12.817Z,37.70
2018-08-03T08:24:51.421Z,37.03
2018-08-03T08:27:30.605Z,36.62
2018-08-03T08:30:09.173Z,36.39
2018-08-03T08:32:42.621Z,36.38
2018-08-03T08:35:17.539Z,36.12
2018-08-03T08:37:54.141Z,36.05
2018-08-03T08:40:35.523Z,35.82
2018-08-03T08:43:09.887Z,35.08
2018-08-03T08:45:49.800Z,35.68
2018-08-03T08:48:31.295Z,36.24
2018-08-03T08:51:10.160Z,35.99
2018-08-03T08:53:50.156Z,35.87
2018-08-03T08:56:22.729Z,35.54
2018-08-03T08:59:08.928Z,34.90
2018-08-03T09:01:49.642Z,34.13
2018-08-03T09:04:28.089Z,34.73
2018-08-03T09:07:07.176Z,34.74
2018-08-03T09:10:01.020Z,34.11
2018-08-03T09:12:41.770Z,33.61
2018-08-03T09:15:23.325Z,33.38
2018-08-03T09:18:03.260Z,33.86
2018-08-03T09:20:41.536Z,33.53
2018-08-03T09:23:20.219Z,32.73
2018-08-03T09:25:57.843Z,31.68
2018-08-03T09:28:38.633Z,32.15
2018-08-03T09:31:18.356Z,32.22
2018-08-03T09:33:57.046Z,32.14
2018-08-03T09:36:32.861Z,31.25
2018-08-03T09:39:09.534Z,30.96
2018-08-03T09:41:48.170Z,31.18
2018-08-03T09:44:31.485Z,31.39
2018-08-03T09:47:04.300Z,31.25
2018-08-03T09:49:36.776Z,31.04
2018-08-03T09:52:16.685Z,31.39
2018-08-03T09:54:52.240Z,31.12
2018-08-03T09:57:30.579Z,31.95
2018-08-03T10:00:08.399Z,32.66
2018-08-03T10:02:52.636Z,33.02
2018-08-03T10:05:32.728Z,30.63
2018-08-03T10:08:06.593Z,29.36
2018-08-03T10:10:44.719Z,29.16
2018-08-03T10:13:23.115Z,28.78
2018-08-03T10:16:06.784Z,28.41
2018-08-03T10:18:44.617Z,28.81
2018-08-03T10:21:23.508Z,28.77
2018-08-03T10:24:01.805Z,28.04
2018-08-03T10:26:42.021Z,28.46
2018-08-03T10:29:20.822Z,27.94
2018-08-03T10:32:01.114Z,28.32
2018-08-03T10:34:33.852Z,28.98
2018-08-03T10:37:08.467Z,29.03
2018-08-03T10:39:49.715Z,28.86
2018-08-03T10:42:27.953Z,28.59
2018-08-03T10:45:13.033Z,27.83
2018-08-03T10:47:53.802Z,27.33
2018-08-03T10:50:30.740Z,27.56
2018-08-03T10:53:08.091Z,27.66
2018-08-03T10:55:43.483Z,26.74
2018-08-03T10:58:19.584Z,26.54
2018-08-03T11:01:00.175Z,25.97
2018-08-03T11:03:39.955Z,25.22
2018-08-03T11:06:14.205Z,25.01
2018-08-03T11:08:47.964Z,24.74
2018-08-03T11:11:22.140Z,24.10
2018-08-03T11:13:55.250Z,24.38
2018-08-03T11:16:28.428Z,24.13
2018-08-03T11:19:02.004Z,24.46
2018-08-03T11:21:36.377Z,24.28
2018-08-03T11:24:09.817Z,23.92
2018-08-03T11:26:44.882Z,23.73
2018-08-03T11:29:22.883Z,22.98
2018-08-03T11:31:55.845Z,22.52
2018-08-03T11:34:29.903Z,21.50
2018-08-03T11:37:08.348Z,21.05
2018-08-03T11:39:43.824Z,20.57
2018-08-03T11:42:18.071Z,20.46
2018-08-03T11:44:54.444Z,20.98
2018-08-03T11:47:32.843Z,21.03
2018-08-03T11:50:08.816Z,21.13
2018-08-03T11:52:49.407Z,20.58
2018-08-03T11:55:27.560Z,19.93
2018-08-03T11:58:07.964Z,19.90
2018-08-03T12:00:40.828Z,19.42
2018-08-03T12:03:19.576Z,20.05
2018-08-03T12:05:53.659Z,19.86
2018-08-03T12:08:29.805Z,20.52
2018-08-03T12:11:15.075Z,20.87
2018-08-03T12:13:53.721Z,20.71
2018-08-03T12:16:32.900Z,19.86
2018-08-03T12:19:07.657Z,20.09
2018-08-03T12:21:40.345Z,20.00
2018-08-03T12:24:13.016Z,19.26
2018-08-03T12:26:45.679Z,18.54
2018-08-03T12:29:22.044Z,18.17
2018-08-03T12:32:01.296Z,18.28
2018-08-03T12:34:40.407Z,18.72
2018-08-03T12:37:18.252Z,19.17
2018-08-03T12:39:56.074Z,19.24
2018-08-03T12:42:37.372Z,19.05
2018-08-03T12:45:16.622Z,19.33
2018-08-03T12:47:51.912Z,20.10
2018-08-03T12:50:25.516Z,20.10
2018-08-03T12:52:59.957Z,20.29
2018-08-03T12:55:38.887Z,20.23
2018-08-03T12:58:28.784Z,19.87
2018-08-03T13:01:09.238Z,20.38
2018-08-03T13:03:42.017Z,21.15
2018-08-03T13:06:16.095Z,20.99
2018-08-03T13:08:57.601Z,20.62
2018-08-03T13:11:35.804Z,20.35
2018-08-03T13:14:08.348Z,20.50
2018-08-03T13:16:41.356Z,20.42
2018-08-03T13:19:22.160Z,20.46
2018-08-03T13:22:02.333Z,20.29
2018-08-03T13:24:43.509Z,20.40
2018-08-03T13:27:17.334Z,21.17
2018-08-03T13:29:50.484Z,21.58
2018-08-03T13:32:30.099Z,21.49
2018-08-03T13:35:04.413Z,21.15
2018-08-03T13:37:38.800Z,20.62
2018-08-03T13:40:17.070Z,20.11
2018-08-03T13:42:50.793Z,19.49
2018-08-03T13:45:29.986Z,18.75
2018-08-03T13:48:29.715Z,18.56
2018-08-03T13:51:08.166Z,18.78
2018-08-03T13:53:48.408Z,18.55
2018-08-03T13:56:26.803Z,18.97
2018-08-03T13:59:00.635Z,18.28
2018-08-03T14:02:15.206Z,18.65
2018-08-03T14:05:01.450Z,18.85
2018-08-03T14:07:34.257Z,18.44
2018-08-03T14:10:14.286Z,18.78
2018-08-03T14:12:49.512Z,19.24
2018-08-03T14:15:27.628Z,19.30
2018-08-03T14:18:03.315Z,19.38
2018-08-03T14:20:36.289Z,19.45
2018-08-03T14:23:10.047Z,19.15
2018-08-03T14:25:42.512Z,18.17
2018-08-03T14:28:22.711Z,17.11
2018-08-03T14:31:05.008Z,16.82
2018-08-03T14:33:43.286Z,17.36
2018-08-03T14:36:22.968Z,17.65
2018-08-03T14:39:05.313Z,17.70
2018-08-03T14:41:39.308Z,17.97
2018-08-03T14:44:17.672Z,18.18
2018-08-03T14:46:55.401Z,17.80
2018-08-03T14:49:35.472Z,17.36
2018-08-03T14:52:16.594Z,17.48
2018-08-03T14:54:53.785Z,17.87
2018-08-03T14:57:26.661Z,17.22
2018-08-03T15:00:07.747Z,16.61
2018-08-03T15:02:48.884Z,16.95
2018-08-03T15:05:28.400Z,17.06
2018-08-03T15:08:05.823Z,17.30
2018-08-03T15:10:43.541Z,17.64
2018-08-03T15:13:22.975Z,17.96
2018-08-03T15:15:55.598Z,17.70
2018-08-03T15:18:30.104Z,17.24
2018-08-03T15:21:02.757Z,17.02
2018-08-03T15:23:35.945Z,16.97
2018-08-03T15:26:10.688Z,16.93
2018-08-03T15:28:46.248Z,16.69
2018-08-03T15:31:25.044Z,17.20
2018-08-03T15:34:04.143Z,16.93
2018-08-03T15:36:38.125Z,17.20
2018-08-03T15:39:17.774Z,16.93
2018-08-03T15:41:51.232Z,17.08
2018-08-03T15:44:24.152Z,17.00
2018-08-03T15:46:58.579Z,17.18
2018-08-03T15:49:34.999Z,17.57
2018-08-03T15:52:15.911Z,17.39
2018-08-03T15:54:55.320Z,17.71
2018-08-03T15:57:28.815Z,18.01
2018-08-03T16:00:09.416Z,17.84
2018-08-03T16:02:43.126Z,17.50
2018-08-03T16:05:16.057Z,17.54
2018-08-03T16:07:48.619Z,17.47
2018-08-03T16:10:21.167Z,17.69
2018-08-03T16:12:59.818Z,17.57
2018-08-03T16:15:37.782Z,17.56
2018-08-03T16:18:11.077Z,17.46
2018-08-03T16:20:45.600Z,17.38
2018-08-03T16:23:18.461Z,17.48
2018-08-03T16:25:55.245Z,17.73
2018-08-03T16:28:27.760Z,17.66
2018-08-03T16:31:06.204Z,17.69
2018-08-03T16:33:39.548Z,17.75
2018-08-03T16:36:13.539Z,17.94
2018-08-03T16:38:49.756Z,17.92
2018-08-03T16:41:22.745Z,18.19
2018-08-03T16:44:20.792Z,18.24
2018-08-03T16:46:55.547Z,18.68
2018-08-03T16:49:30.943Z,19.32
2018-08-03T16:52:03.538Z,19.27
2018-08-03T16:54:41.229Z,19.29
2018-08-03T16:57:16.625Z,19.64
2018-08-03T16:59:49.788Z,20.13
2018-08-03T17:02:29.968Z,20.21
2018-08-03T17:05:09.932Z,20.43
2018-08-03T17:07:47.103Z,20.90
2018-08-03T17:10:20.428Z,21.25
2018-08-03T17:13:00.314Z,21.87
2018-08-03T17:15:33.060Z,22.90
2018-08-03T17:18:07.867Z,23.60
2018-08-03T17:20:46.221Z,24.27
2018-08-03T17:23:18.796Z,24.52
2018-08-03T17:25:56.013Z,24.81
2018-08-03T17:28:30.760Z,24.86
2018-08-03T17:31:05.368Z,25.20
2018-08-03T17:33:43.684Z,25.52
2018-08-03T17:36:23.743Z,25.46
2018-08-03T17:38:59.824Z,25.54
2018-08-03T17:41:32.689Z,26.10
2018-08-03T17:44:08.050Z,26.41
2018-08-03T17:46:41.838Z,26.52
2018-08-03T17:49:17.592Z,26.90
2018-08-03T17:51:52.800Z,27.03
2018-08-03T17:54:31.848Z,26.76
2018-08-03T17:57:06.177Z,26.91
2018-08-03T17:59:42.848Z,26.86
2018-08-03T18:02:16.854Z,27.21
2018-08-03T18:04:50.867Z,27.50
2018-08-03T18:07:28.165Z,27.52
2018-08-03T18:10:03.538Z,27.75
2018-08-03T18:12:41.988Z,27.73
2018-08-03T18:15:17.596Z,27.95
2018-08-03T18:17:52.827Z,28.06
2018-08-03T18:20:26.480Z,28.25
2018-08-03T18:23:00.902Z,28.55
2018-08-03T18:25:41.350Z,28.85
2018-08-03T18:28:19.848Z,29.26
2018-08-03T18:30:58.937Z,29.80
2018-08-03T18:33:33.581Z,30.01
2018-08-03T18:36:08.854Z,30.41
2018-08-03T18:38:47.691Z,30.86
2018-08-03T18:41:22.748Z,31.08
2018-08-03T18:43:56.647Z,31.32
2018-08-03T18:46:35.205Z,31.48
2018-08-03T18:49:14.891Z,31.48
2018-08-03T18:51:49.763Z,31.82
2018-08-03T18:54:24.671Z,32.13
2018-08-03T18:56:58.612Z,32.21
2018-08-03T18:59:33.300Z,32.59
2018-08-03T19:02:07.818Z,32.85
2018-08-03T19:04:48.426Z,33.18
2018-08-03T19:07:23.768Z,33.37
2018-08-03T19:10:04.124Z,33.58
2018-08-03T19:12:43.097Z,34.03
2018-08-03T19:15:22.231Z,34.41
2018-08-03T19:17:59.117Z,34.69
2018-08-03T19:20:32.932Z,34.82
2018-08-03T19:23:15.251Z,35.20
2018-08-03T19:25:59.124Z,35.52
2018-08-03T19:28:40.720Z,35.78
2018-08-03T19:31:18.728Z,36.06
2018-08-03T19:33:54.828Z,36.31
2018-08-03T19:36:30.476Z,36.75
2018-08-03T19:39:06.994Z,37.07
2018-08-03T19:41:48.995Z,37.34
2018-08-03T19:44:28.308Z,37.70
2018-08-03T19:47:07.034Z,38.05
2018-08-03T19:49:42.032Z,38.30
2018-08-03T19:52:18.304Z,38.66
2018-08-03T19:54:52.909Z,38.84
2018-08-03T19:57:26.968Z,39.06
2018-08-03T20:00:18.283Z,39.25
2018-08-03T20:02:59.051Z,39.46
2018-08-03T20:05:41.737Z,39.58
2018-08-03T20:08:21.512Z,39.72
2018-08-03T20:11:04.699Z,39.84
2018-08-03T20:13:41.045Z,40.00
2018-08-03T20:16:19.333Z,40.05
2018-08-03T20:18:59.580Z,39.93
2018-08-03T20:21:34.648Z,39.89
2018-08-03T20:24:08.773Z,39.90
2018-08-03T20:27:39.837Z,40.10
2018-08-03T20:30:17.620Z,40.09
2018-08-03T20:32:52.655Z,40.06
2018-08-03T20:35:31.729Z,40.26
2018-08-03T20:38:05.480Z,40.36
2018-08-03T20:40:39.366Z,40.31
2018-08-03T20:43:18.049Z,40.38
2018-08-03T20:45:51.287Z,40.42
2018-08-03T20:48:26.673Z,40.31
2018-08-03T20:50:59.844Z,40.18
2018-08-03T20:53:32.263Z,40.10
2018-08-03T20:56:05.361Z,40.25
2018-08-03T20:58:38.406Z,40.39
2018-08-03T21:01:13.344Z,40.52
2018-08-03T21:03:48.484Z,40.64
2018-08-03T21:06:26.573Z,40.69
2018-08-03T21:09:11.992Z,40.45
2018-08-03T21:11:46.919Z,40.71
2018-08-03T21:14:27.091Z,40.94
2018-08-03T21:17:01.637Z,41.09
2018-08-03T21:19:40.503Z,41.22
2018-08-03T21:22:20.290Z,41.47
2018-08-03T21:24:58.116Z,41.64
2018-08-03T21:27:31.252Z,41.81
2018-08-03T21:30:10.019Z,41.76
2018-08-03T21:32:49.344Z,41.99
2018-08-03T21:35:29.068Z,42.33
2018-08-03T21:38:01.657Z,42.40
2018-08-03T21:40:35.830Z,42.40
2018-08-03T21:43:09.923Z,42.40
2018-08-03T21:45:43.539Z,42.63
2018-08-03T21:48:19.210Z,42.83
2018-08-03T21:50:51.704Z,42.85
2018-08-03T21:53:32.203Z,42.68
2018-08-03T21:56:12.156Z,42.77
2018-08-03T21:58:44.775Z,42.99
2018-08-03T22:01:19.675Z,43.15
2018-08-03T22:03:58.832Z,43.17
2018-08-03T22:06:33.665Z,43.48
2018-08-03T22:09:10.028Z,43.54
2018-08-03T22:11:43.942Z,43.65
2018-08-03T22:14:16.856Z,43.84
2018-08-03T22:16:54.752Z,44.11
2018-08-03T22:19:29.497Z,44.38
2018-08-03T22:22:02.049Z,44.75
2018-08-03T22:24:34.847Z,44.71
2018-08-03T22:27:10.323Z,44.61
2018-08-03T22:29:48.238Z,44.96
2018-08-03T22:32:26.252Z,45.20
2018-08-03T22:35:08.695Z,45.38
2018-08-03T22:37:45.397Z,45.81
2018-08-03T22:40:22.036Z,45.80
2018-08-03T22:43:01.707Z,46.05
2018-08-03T22:45:38.879Z,46.22
2018-08-03T22:48:11.819Z,46.19
2018-08-03T22:50:45.834Z,46.57
2018-08-03T22:53:20.857Z,46.72
2018-08-03T22:56:08.468Z,46.84
2018-08-03T22:58:41.835Z,47.35
2018-08-03T23:01:15.226Z,47.37
2018-08-03T23:03:49.976Z,47.58
2018-08-03T23:06:24.353Z,47.41
2018-08-03T23:09:05.031Z,47.41
2018-08-03T23:11:39.032Z,47.83
2018-08-03T23:14:13.933Z,47.85
2018-08-03T23:16:51.860Z,47.93
2018-08-03T23:19:29.671Z,48.05
2018-08-03T23:22:05.637Z,48.02
2018-08-03T23:24:44.393Z,48.23
2018-08-03T23:27:24.140Z,48.66
2018-08-03T23:29:59.178Z,48.78
2018-08-03T23:32:31.668Z,48.87
2018-08-03T23:35:10.413Z,48.80
2018-08-03T23:37:51.313Z,49.02
2018-08-03T23:40:31.911Z,49.18
2018-08-03T23:43:05.441Z,48.93
2018-08-03T23:45:39.191Z,48.99
2018-08-03T23:48:12.732Z,49.08
2018-08-03T23:50:47.126Z,49.28
2018-08-03T23:53:26.547Z,49.47
2018-08-03T23:56:00.109Z,49.50
2018-08-03T23:58:33.465Z,49.49
